Time;durP1;ratioP1;P1;durP2;ratioP2;P2;SDS_P1;SDS_P2;PMS_P1;PMS_P2;Temp;Humidity;BMP_temperature;BMP_pressure;BME280_temperature;BME280_humidity;BME280_pressure;Samples;Min_cycle;Max_cycle;Signal;HPM_P1;HPM_P2
2022/07/28 00:02:17;;;;;;;3.30;3.00;;;19.10;94.30;;;19.82;58.19;97878.88;5216497;28;20294;-58
2022/07/28 00:04:51;;;;;;;3.33;3.08;;;19.10;94.10;;;19.76;57.40;97875.31;5212013;28;20202;-57
2022/07/28 00:07:25;;;;;;;4.55;3.13;;;19.00;93.60;;;19.76;57.83;97867.53;5208497;28;20309;-60
2022/07/28 00:09:58;;;;;;;3.38;3.08;;;19.00;94.30;;;19.75;58.21;97862.31;5210478;28;20225;-60
2022/07/28 00:12:34;;;;;;;3.63;2.92;;;18.90;94.40;;;19.71;58.30;97869.13;5216253;28;20216;-60
2022/07/28 00:15:08;;;;;;;3.78;3.47;;;18.90;94.30;;;19.65;58.51;97866.41;5212365;28;20205;-60
2022/07/28 00:17:41;;;;;;;3.22;2.92;;;18.90;94.40;;;19.69;57.02;97868.25;5209786;28;20287;-59
2022/07/28 00:20:14;;;;;;;5.10;3.35;;;18.90;93.60;;;19.61;57.15;97863.72;5216149;28;20236;-60
2022/07/28 00:22:48;;;;;;;3.63;3.28;;;18.70;93.80;;;19.54;57.86;97873.06;5220493;28;20225;-60
2022/07/28 00:25:21;;;;;;;3.08;2.78;;;18.70;94.30;;;19.53;58.18;97868.72;5211829;28;20206;-60
2022/07/28 00:27:55;;;;;;;3.92;3.22;;;18.70;94.30;;;19.50;58.14;97871.25;5213396;28;20253;-59
2022/07/28 00:30:29;;;;;;;5.18;3.47;;;18.70;94.20;;;19.51;58.34;97857.44;5215461;28;20216;-59
2022/07/28 00:33:02;;;;;;;4.75;3.38;;;18.80;94.50;;;19.48;59.74;97863.41;5214158;28;20217;-60
2022/07/28 00:35:37;;;;;;;4.00;3.20;;;18.80;95.50;;;19.48;58.79;97862.56;5210089;28;20197;-58
2022/07/28 00:38:10;;;;;;;4.93;3.67;;;18.70;94.70;;;19.26;59.86;97864.69;5214548;28;20236;-60
2022/07/28 00:43:35;;;;;;;3.80;3.15;;;18.50;96.30;;;19.21;60.63;97858.50;5211309;28;20280;-59
2022/07/28 00:46:09;;;;;;;3.65;3.35;;;18.40;96.20;;;19.07;60.88;97850.41;5210969;28;20228;-60
2022/07/28 00:48:45;;;;;;;4.93;3.40;;;18.30;96.40;;;19.04;60.44;97852.06;5214742;28;20222;-59
2022/07/28 00:51:21;;;;;;;3.50;3.22;;;18.30;96.20;;;18.95;60.88;97836.31;5222299;28;20197;-60
2022/07/28 00:53:55;;;;;;;3.22;2.88;;;18.10;96.20;;;18.92;61.09;97844.00;5216971;28;20676;-59
2022/07/28 00:56:28;;;;;;;3.15;2.92;;;18.20;96.60;;;18.98;59.24;97851.91;5213263;28;20235;-60
2022/07/28 00:59:03;;;;;;;4.00;3.42;;;18.20;95.60;;;18.93;60.32;97837.97;5215247;28;20272;-60
2022/07/28 01:01:36;;;;;;;3.60;3.38;;;18.20;96.00;;;18.82;59.65;97843.75;5214504;28;20217;-60
2022/07/28 01:04:09;;;;;;;4.30;3.20;;;18.10;95.90;;;18.84;61.32;97842.09;5216541;28;20252;-53
2022/07/28 01:07:08;;;;;;;3.70;3.20;;;18.10;96.70;;;18.82;61.89;97833.41;5213753;28;20201;-52
2022/07/28 01:10:01;;;;;;;3.75;3.35;;;18.10;97.00;;;18.78;62.30;97841.94;5215521;28;20222;-56
2022/07/28 01:12:50;;;;;;;3.60;3.30;;;18.10;97.50;;;18.74;61.73;97840.09;5211278;28;20696;-58
2022/07/28 01:15:30;;;;;;;3.55;3.25;;;18.00;97.20;;;18.66;62.95;97833.84;5213527;28;20719;-56
2022/07/28 01:18:07;;;;;;;4.25;3.88;;;17.90;98.30;;;18.61;63.93;97828.56;5219032;28;20221;-54
2022/07/28 01:20:47;;;;;;;3.90;3.58;;;17.80;98.80;;;18.60;62.59;97833.69;5216018;28;20225;-64
2022/07/28 01:24:10;;;;;;;4.97;3.50;;;17.80;97.90;;;18.51;62.96;97829.16;5218338;28;20268;-53
2022/07/28 01:26:56;;;;;;;4.10;3.70;;;17.70;97.90;;;18.50;64.55;97830.00;5213174;28;20592;-56
2022/07/28 01:29:58;;;;;;;3.78;3.47;;;17.70;99.10;;;18.43;63.61;97823.78;5210203;28;20280;-61
2022/07/28 01:32:39;;;;;;;4.32;3.97;;;17.70;98.70;;;18.50;64.89;97823.94;5215572;28;20216;-54
2022/07/28 01:35:17;;;;;;;3.97;3.40;;;17.70;99.50;;;18.44;65.12;97825.53;5221403;28;20254;-56
2022/07/28 01:37:55;;;;;;;4.63;3.55;;;17.70;99.60;;;18.39;64.22;97829.72;5217081;28;20254;-58
2022/07/28 01:40:34;;;;;;;4.97;3.97;;;17.60;99.40;;;18.15;65.06;97817.03;5217718;28;20270;-58
2022/07/28 01:43:12;;;;;;;4.05;3.78;;;17.50;99.70;;;18.14;65.46;97815.28;5219720;28;20240;-54
2022/07/28 01:45:46;;;;;;;4.78;4.00;;;17.40;99.90;;;18.17;66.71;97812.78;5209718;28;20673;-56
2022/07/28 01:48:24;;;;;;;4.30;3.80;;;17.50;99.90;;;18.15;67.10;97816.16;5225465;28;20293;-59
2022/07/28 01:50:58;;;;;;;4.13;3.83;;;17.50;99.90;;;18.09;66.26;97811.69;5215827;28;20227;-55
2022/07/28 01:53:32;;;;;;;4.97;3.70;;;17.30;99.90;;;18.08;66.49;97811.63;5220222;28;20324;-54
2022/07/28 01:56:11;;;;;;;3.97;3.55;;;17.30;99.90;;;18.02;66.87;97800.28;5217991;28;20224;-56
2022/07/28 01:58:45;;;;;;;4.28;3.88;;;17.30;99.90;;;18.03;66.56;97803.78;5223377;28;20224;-56
2022/07/28 02:01:20;;;;;;;3.85;3.65;;;17.20;99.90;;;17.95;66.09;97806.13;5209627;28;20307;-53
2022/07/28 02:03:58;;;;;;;4.47;4.07;;;17.10;99.90;;;17.84;66.46;97807.56;5215017;28;20197;-53
2022/07/28 02:06:33;;;;;;;4.32;3.92;;;17.00;99.90;;;17.83;68.00;97795.47;5205025;28;20222;-52
2022/07/28 02:09:08;;;;;;;4.38;3.97;;;17.10;99.90;;;17.86;67.68;97786.94;5214897;28;20263;-62
2022/07/28 02:11:43;;;;;;;3.97;3.67;;;17.10;99.90;;;17.89;67.09;97787.88;5220703;28;20241;-59
2022/07/28 02:14:21;;;;;;;4.65;4.25;;;17.10;99.90;;;17.88;67.36;97787.81;5223126;28;20229;-56
2022/07/28 02:16:58;;;;;;;6.28;4.32;;;17.10;99.90;;;17.84;67.27;97784.28;5211090;28;20288;-55
2022/07/28 02:19:35;;;;;;;4.57;4.13;;;17.10;99.90;;;17.84;66.82;97784.28;5219328;28;20188;-58
2022/07/28 02:22:09;;;;;;;4.03;3.63;;;17.00;99.90;;;17.78;67.28;97782.41;5228059;28;20248;-60
2022/07/28 02:24:45;;;;;;;4.78;4.28;;;17.00;99.90;;;17.74;67.74;97777.06;5219213;28;20199;-53
2022/07/28 02:27:23;;;;;;;4.50;4.20;;;17.00;99.90;;;17.66;67.53;97781.19;5228675;28;20246;-55
2022/07/28 02:30:04;;;;;;;4.55;4.13;;;16.90;99.90;;;17.63;67.32;97779.38;5224178;28;20229;-56
2022/07/28 02:32:45;;;;;;;4.15;3.85;;;16.80;99.90;;;17.66;68.00;97778.59;5222885;28;20283;-58
2022/07/28 02:35:26;;;;;;;4.15;3.83;;;16.80;99.90;;;17.54;68.03;97777.41;5220311;28;20279;-55
2022/07/28 02:38:10;;;;;;;4.45;4.07;;;16.80;99.90;;;17.49;67.71;97786.72;5222409;28;20232;-55
2022/07/28 02:40:45;;;;;;;4.13;3.75;;;16.70;99.90;;;17.45;67.21;97774.53;5217475;28;20217;-54
2022/07/28 02:43:31;;;;;;;4.68;4.25;;;16.70;99.90;;;17.32;67.38;97777.63;5226871;28;20295;-52
2022/07/28 02:46:26;;;;;;;4.80;4.45;;;16.50;99.90;;;17.29;69.47;97777.53;5231086;28;20204;-53
2022/07/28 02:49:06;;;;;;;4.60;4.20;;;16.50;99.90;;;17.28;68.04;97771.50;5221269;28;20244;-58
2022/07/28 02:51:43;;;;;;;4.40;4.10;;;16.50;99.90;;;17.21;68.19;97779.88;5216764;28;20227;-56
2022/07/28 02:54:19;;;;;;;5.45;4.22;;;16.40;99.90;;;17.13;69.69;97778.78;5209553;28;20236;-57
2022/07/28 02:56:54;;;;;;;5.20;4.80;;;16.30;99.90;;;17.06;68.63;97780.31;5225437;28;20641;-54
2022/07/28 02:59:29;;;;;;;5.00;4.50;;;16.30;99.90;;;17.04;68.74;97778.50;5223195;28;20240;-52
2022/07/28 03:02:03;;;;;;;4.78;4.35;;;16.20;99.90;;;17.07;69.64;97779.47;5222663;28;20271;-55
2022/07/28 03:07:31;;;;;;;4.65;4.30;;;16.30;99.90;;;17.06;69.19;97785.47;5210181;28;20193;-52
2022/07/28 03:10:05;;;;;;;5.00;4.30;;;16.20;99.90;;;17.07;70.23;97787.22;5220469;28;20295;-52
2022/07/28 03:12:38;;;;;;;4.88;4.43;;;16.30;99.90;;;17.06;69.67;97782.88;5223946;28;20251;-58
2022/07/28 03:15:11;;;;;;;4.55;4.15;;;16.30;99.90;;;17.06;70.49;97800.09;5217498;28;20316;-52
2022/07/28 03:17:44;;;;;;;5.40;4.60;;;16.30;99.90;;;16.98;68.86;97796.41;5218422;28;20237;-60
2022/07/28 03:20:18;;;;;;;4.45;4.13;;;16.20;99.90;;;16.88;69.76;97792.63;5220465;28;20332;-55
2022/07/28 03:22:54;;;;;;;4.80;4.40;;;16.10;99.90;;;16.91;69.59;97792.72;5221533;28;20220;-52
2022/07/28 03:25:34;;;;;;;4.55;4.15;;;16.10;99.90;;;16.91;70.60;97797.03;5221534;28;20483;-52
2022/07/28 03:28:13;;;;;;;4.78;4.40;;;16.10;99.90;;;16.87;70.97;97794.34;5216908;28;20213;-52
2022/07/28 03:30:53;;;;;;;4.55;4.25;;;16.20;99.90;;;16.88;70.85;97800.38;5215695;28;20228;-54
2022/07/28 03:33:27;;;;;;;5.10;4.70;;;16.20;99.90;;;16.87;70.70;97799.50;5212481;28;20216;-53
2022/07/28 03:36:07;;;;;;;5.05;4.65;;;16.10;99.90;;;16.80;70.92;97800.16;5213140;28;20247;-54
2022/07/28 03:38:46;;;;;;;5.40;4.80;;;16.10;99.90;;;16.86;70.90;97802.06;5218146;28;20867;-62
2022/07/28 03:41:23;;;;;;;5.50;5.00;;;16.10;99.90;;;16.78;70.67;97806.09;5215401;28;20307;-52
2022/07/28 03:43:58;;;;;;;4.65;4.32;;;16.00;99.90;;;16.69;71.17;97808.38;5223417;28;20287;-52
2022/07/28 03:46:32;;;;;;;6.63;4.70;;;15.90;99.90;;;16.75;72.09;97804.25;5228931;28;20210;-53
2022/07/28 03:49:08;;;;;;;5.18;4.72;;;16.00;99.90;;;16.77;71.04;97800.06;5216857;28;20261;-59
2022/07/28 03:51:41;;;;;;;5.07;4.68;;;16.00;99.90;;;16.80;70.87;97801.88;5218798;28;20313;-58
2022/07/28 03:54:16;;;;;;;5.22;4.72;;;16.00;99.90;;;16.81;71.74;97812.22;5223548;28;20212;-54
2022/07/28 03:56:49;;;;;;;5.13;4.72;;;16.10;99.90;;;16.73;70.59;97810.19;5224120;28;20212;-57
2022/07/28 03:59:23;;;;;;;5.18;4.72;;;16.00;99.90;;;16.62;70.71;97804.69;5226444;28;20198;-52
2022/07/28 04:01:56;;;;;;;4.88;4.57;;;15.70;99.90;;;16.58;71.81;97808.88;5218125;28;20287;-58
2022/07/28 04:04:30;;;;;;;5.30;4.80;;;15.80;99.90;;;16.60;71.33;97804.66;5232489;28;20196;-58
2022/07/28 04:07:03;;;;;;;4.88;4.47;;;15.80;99.90;;;16.58;70.23;97806.31;5227367;28;20292;-54
2022/07/28 04:09:37;;;;;;;5.38;4.97;;;15.70;99.90;;;16.59;71.82;97807.16;5221158;28;20245;-57
2022/07/28 04:12:11;;;;;;;5.25;4.75;;;15.80;99.90;;;16.63;72.07;97807.34;5219176;28;20279;-55
2022/07/28 04:14:44;;;;;;;5.03;4.50;;;15.90;99.90;;;16.63;70.72;97809.91;5226437;28;20231;-57
2022/07/28 04:17:17;;;;;;;5.20;4.90;;;15.90;99.90;;;16.66;70.67;97810.00;5218836;28;20687;-57
2022/07/28 04:19:50;;;;;;;5.00;4.50;;;15.90;99.90;;;16.66;70.82;97807.44;5221280;28;20486;-57
2022/07/28 04:22:24;;;;;;;5.18;4.70;;;15.90;99.90;;;16.71;71.89;97811.84;5217963;28;20225;-55
2022/07/28 04:25:00;;;;;;;5.38;4.88;;;15.90;99.90;;;16.77;71.16;97806.91;5223243;28;20229;-57
2022/07/28 04:27:35;;;;;;;5.25;4.85;;;16.00;99.90;;;16.88;71.51;97818.44;5229897;28;20201;-57
2022/07/28 04:30:12;;;;;;;4.97;4.53;;;16.20;99.90;;;16.96;69.93;97814.41;5216594;28;20315;-55
2022/07/28 04:32:46;;;;;;;5.40;4.90;;;16.20;99.90;;;17.03;69.92;97811.22;5217375;28;20256;-52
2022/07/28 04:35:22;;;;;;;5.22;4.72;;;16.20;99.90;;;17.04;69.89;97809.50;5212081;28;20250;-55
2022/07/28 04:37:57;;;;;;;4.53;4.22;;;16.30;99.90;;;17.09;69.97;97806.22;5214918;28;20202;-54
2022/07/28 04:40:33;;;;;;;5.30;4.82;;;16.30;99.90;;;17.16;69.30;97809.84;5214839;28;20231;-57
2022/07/28 04:43:06;;;;;;;5.18;4.68;;;16.50;99.90;;;17.24;69.81;97815.25;5213977;28;20221;-58
2022/07/28 04:45:39;;;;;;;4.22;3.92;;;16.50;99.90;;;17.29;69.50;97817.16;5215883;28;20666;-55
2022/07/28 04:48:25;;;;;;;6.03;4.78;;;16.50;99.90;;;17.29;69.44;97813.72;5218031;28;20259;-57
2022/07/28 04:50:58;;;;;;;5.13;4.40;;;16.60;99.90;;;17.27;69.21;97810.19;5212496;28;20196;-58
2022/07/28 04:53:31;;;;;;;5.28;4.78;;;16.60;99.90;;;17.33;69.46;97810.38;5221571;28;20254;-56
2022/07/28 04:56:06;;;;;;;5.57;4.93;;;16.60;99.90;;;17.35;69.74;97803.53;5214757;28;20201;-56
2022/07/28 04:58:39;;;;;;;5.50;4.97;;;16.60;99.90;;;17.40;70.25;97803.66;5221959;28;20626;-55
2022/07/28 05:01:14;;;;;;;5.30;4.80;;;16.70;99.90;;;17.41;69.39;97802.84;5215409;28;20661;-57
2022/07/28 05:03:48;;;;;;;5.43;4.97;;;16.70;99.90;;;17.48;70.29;97800.50;5227975;28;20656;-57
2022/07/28 05:06:21;;;;;;;4.93;4.53;;;16.80;99.90;;;17.61;68.98;97800.84;5220098;28;20222;-57
2022/07/28 05:08:54;;;;;;;4.85;4.45;;;16.90;99.90;;;17.70;68.68;97808.84;5221306;28;20267;-56
2022/07/28 05:11:28;;;;;;;5.15;4.65;;;16.90;99.90;;;17.68;67.58;97813.09;5226765;28;20244;-58
2022/07/28 05:14:02;;;;;;;5.20;4.80;;;17.00;99.90;;;17.89;67.83;97805.97;5211492;28;20652;-58
2022/07/28 05:16:35;;;;;;;4.95;4.45;;;17.20;99.90;;;18.01;66.98;97803.72;5218091;28;20657;-54
2022/07/28 05:19:09;;;;;;;4.60;4.20;;;17.30;99.90;;;18.24;65.40;97806.03;5212770;28;20284;-57
2022/07/28 05:21:43;;;;;;;5.60;4.50;;;17.50;99.90;;;18.42;65.42;97806.50;5222526;28;20757;-58
2022/07/28 05:24:16;;;;;;;4.60;4.20;;;17.70;99.90;;;18.70;64.83;97802.00;5215956;28;20226;-56
2022/07/28 05:26:51;;;;;;;4.82;4.40;;;17.90;99.90;;;19.28;62.89;97805.97;5216004;28;20224;-58
2022/07/28 05:29:24;;;;;;;5.03;4.00;;;18.60;99.80;;;19.84;60.34;97796.78;5207785;28;20224;-57
2022/07/28 05:32:13;;;;;;;4.50;4.10;;;19.10;97.80;;;20.57;58.50;97800.72;5216025;28;20217;-59
2022/07/28 05:34:49;;;;;;;4.80;3.97;;;19.70;97.10;;;21.05;54.79;97799.72;5210317;28;20201;-58
2022/07/28 05:37:22;;;;;;;4.30;3.90;;;20.30;94.50;;;21.63;53.56;97811.81;5212931;28;20232;-58
2022/07/28 05:39:55;;;;;;;4.15;3.85;;;20.60;93.60;;;22.00;52.55;97800.09;5210335;28;20229;-58
2022/07/28 05:42:34;;;;;;;5.10;3.75;;;20.80;93.40;;;22.40;51.87;97806.63;5218411;28;20696;-58
2022/07/28 05:45:09;;;;;;;5.25;3.67;;;21.20;92.80;;;22.58;50.72;97808.53;5213945;28;20676;-59
2022/07/28 05:47:52;;;;;;;4.47;4.07;;;21.30;92.60;;;22.52;51.09;97804.97;5216342;28;20204;-58
2022/07/28 05:50:25;;;;;;;3.95;3.53;;;21.40;92.30;;;23.13;49.80;97806.38;5222086;28;21013;-58
2022/07/28 05:52:58;;;;;;;6.15;4.30;;;21.80;91.30;;;22.65;50.61;97807.72;5224174;28;20688;-59
2022/07/28 05:55:32;;;;;;;4.30;3.67;;;21.60;91.50;;;23.11;49.42;97809.81;5222430;28;20201;-58
2022/07/28 05:58:06;;;;;;;4.00;3.53;;;21.70;91.30;;;23.42;48.56;97803.06;5218195;28;20268;-59
2022/07/28 06:00:39;;;;;;;4.57;3.80;;;22.00;90.90;;;23.58;47.93;97804.88;5219676;28;20223;-59
2022/07/28 06:03:13;;;;;;;4.90;4.10;;;22.20;90.30;;;23.68;47.12;97790.13;5226489;28;20683;-59
2022/07/28 06:05:46;;;;;;;4.10;3.65;;;22.20;90.00;;;23.92;47.35;97807.66;5216468;28;20216;-62
2022/07/28 06:08:39;;;;;;;4.82;4.10;;;22.40;90.30;;;24.24;46.73;97802.50;5216959;28;20212;-63
2022/07/28 06:11:12;;;;;;;5.15;4.65;;;22.50;89.70;;;24.18;46.43;97801.59;5214306;28;20315;-63
2022/07/28 06:13:56;;;;;;;6.10;4.35;;;22.40;89.80;;;24.21;46.79;97794.66;5215691;28;20619;-60
2022/07/28 06:16:29;;;;;;;4.40;4.00;;;22.50;90.10;;;24.38;47.03;97788.56;5217411;28;20292;-63
2022/07/28 06:19:02;;;;;;;5.00;3.97;;;22.60;90.40;;;24.72;45.59;97794.72;5210699;28;20673;-60
2022/07/28 06:21:35;;;;;;;5.03;4.38;;;22.80;89.80;;;24.41;46.47;97792.09;5213134;28;20273;-63
2022/07/28 06:24:09;;;;;;;4.03;3.72;;;22.60;90.20;;;24.30;48.22;97792.94;5216372;28;20285;-63
2022/07/28 06:26:42;;;;;;;5.47;4.55;;;22.50;91.50;;;24.04;48.48;97792.03;5212614;28;20203;-63
2022/07/28 06:29:19;;;;;;;5.45;4.45;;;22.50;90.80;;;24.42;47.44;97790.34;5215759;28;20268;-61
2022/07/28 06:31:52;;;;;;;7.45;5.13;;;22.50;91.00;;;24.31;47.51;97797.28;5216965;28;20775;-62
2022/07/28 06:34:25;;;;;;;4.90;4.50;;;22.50;90.90;;;24.23;48.43;97790.28;5217341;28;20356;-62
2022/07/28 06:36:59;;;;;;;6.65;5.05;;;22.50;91.40;;;24.78;47.45;97792.13;5214726;28;20197;-63
2022/07/28 06:39:32;;;;;;;5.50;4.93;;;23.10;90.90;;;25.43;46.05;97789.41;5220855;28;20214;-63
2022/07/28 06:42:05;;;;;;;5.10;4.70;;;23.60;89.90;;;25.63;45.02;97793.69;5216659;28;20271;-63
2022/07/28 06:44:39;;;;;;;5.50;5.05;;;23.70;88.60;;;25.71;46.16;97788.44;5221782;28;20629;-63
2022/07/28 06:47:31;;;;;;;5.55;5.05;;;24.10;89.60;;;25.99;44.85;97781.34;5218671;28;20290;-61
2022/07/28 06:50:06;;;;;;;5.47;4.97;;;24.10;88.70;;;25.80;45.77;97784.91;5213921;28;20707;-64
2022/07/28 06:52:58;;;;;;;6.32;5.43;;;24.50;87.30;;;26.48;43.84;97791.50;5216192;28;20220;-62
2022/07/28 06:55:32;;;;;;;5.78;5.30;;;24.80;86.70;;;26.56;42.44;97782.75;5218514;28;20211;-64
2022/07/28 06:58:07;;;;;;;5.80;5.20;;;25.10;83.50;;;27.01;42.63;97783.22;5214745;28;20192;-64
2022/07/28 07:00:42;;;;;;;6.07;5.30;;;25.30;84.20;;;27.03;42.46;97784.09;5223591;28;20690;-64
2022/07/28 07:03:15;;;;;;;6.00;5.50;;;25.20;84.20;;;26.68;43.40;97785.28;5214644;28;20256;-64
2022/07/28 07:05:48;;;;;;;6.03;5.53;;;25.10;84.80;;;26.97;42.70;97774.53;5213195;28;20228;-64
2022/07/28 07:08:25;;;;;;;5.60;5.10;;;25.40;83.60;;;27.57;41.71;97776.53;5215253;28;20212;-61
2022/07/28 07:10:58;;;;;;;5.93;5.43;;;25.80;83.00;;;27.65;41.83;97768.56;5214720;28;20236;-62
2022/07/28 07:13:32;;;;;;;5.90;5.28;;;26.10;82.80;;;27.93;41.02;97782.22;5215603;28;20287;-64
2022/07/28 07:16:06;;;;;;;6.68;4.97;;;26.20;82.10;;;28.16;40.95;97772.28;5215292;28;20224;-64
2022/07/28 07:18:40;;;;;;;5.95;5.45;;;26.30;81.30;;;28.35;40.79;97772.00;5212633;28;20251;-64
2022/07/28 07:21:13;;;;;;;5.60;5.00;;;26.50;82.00;;;28.78;39.79;97771.31;5216489;28;20292;-62
2022/07/28 07:23:46;;;;;;;5.93;5.35;;;26.90;81.20;;;29.01;38.50;97774.41;5216463;28;20274;-64
2022/07/28 07:26:19;;;;;;;5.05;4.55;;;27.20;79.00;;;28.55;39.57;97763.81;5213077;28;20228;-62
2022/07/28 07:28:52;;;;;;;6.13;5.53;;;27.20;78.90;;;28.79;40.40;97763.41;5214718;28;20193;-64
2022/07/28 07:31:27;;;;;;;5.78;5.28;;;27.30;80.30;;;29.02;39.24;97760.38;5215767;28;20256;-59
2022/07/28 07:34:00;;;;;;;5.22;4.82;;;27.40;78.60;;;29.17;39.20;97760.09;5214995;28;20299;-64
2022/07/28 07:36:34;;;;;;;5.65;5.20;;;27.30;79.00;;;29.05;38.56;97751.59;5216471;28;20258;-64
2022/07/28 07:39:08;;;;;;;6.35;5.85;;;27.20;78.40;;;29.21;38.91;97754.78;5213572;28;20236;-62
2022/07/28 07:41:41;;;;;;;6.68;5.35;;;27.50;78.90;;;29.38;38.71;97756.19;5225778;28;20243;-63
2022/07/28 07:44:15;;;;;;;7.63;5.30;;;27.60;77.80;;;29.58;38.88;97750.50;5214326;28;20232;-63
2022/07/28 07:46:50;;;;;;;6.05;5.30;;;27.50;79.40;;;29.30;38.72;97759.88;5214825;28;20228;-61
2022/07/28 07:49:23;;;;;;;5.75;5.20;;;27.70;77.10;;;29.42;38.67;97747.34;5215642;28;20208;-64
2022/07/28 07:52:17;;;;;;;5.97;5.38;;;27.60;78.70;;;29.82;38.73;97753.59;5215198;28;20515;-64
2022/07/28 07:54:50;;;;;;;5.70;4.90;;;27.60;79.00;;;30.18;37.90;97749.22;5216699;28;20291;-64
2022/07/28 07:57:23;;;;;;;5.32;4.93;;;27.90;77.90;;;30.66;36.20;97748.13;5209097;28;20229;-64
2022/07/28 07:59:56;;;;;;;5.65;5.15;;;28.30;76.90;;;30.84;36.31;97742.38;5209347;28;20279;-61
2022/07/28 08:02:30;;;;;;;5.47;5.05;;;28.30;77.20;;;30.72;36.88;97745.31;5211258;28;20245;-63
2022/07/28 08:05:04;;;;;;;5.20;4.80;;;28.70;76.90;;;31.16;36.24;97741.56;5216728;28;20200;-62
2022/07/28 08:07:40;;;;;;;5.50;5.00;;;28.80;76.20;;;31.72;34.80;97740.88;5209643;28;20284;-59
2022/07/28 08:10:13;;;;;;;5.68;5.18;;;29.10;75.40;;;31.53;34.95;97737.03;5209992;28;20193;-63
2022/07/28 08:12:46;;;;;;;5.45;4.95;;;29.20;75.00;;;30.93;36.09;97746.56;5212868;28;20350;-64
2022/07/28 08:15:20;;;;;;;5.65;5.15;;;28.50;76.20;;;30.74;36.86;97748.81;5224834;28;20251;-64
2022/07/28 08:17:54;;;;;;;5.72;5.22;;;28.50;77.30;;;30.18;37.82;97754.50;5225789;28;20720;-63
2022/07/28 08:20:28;;;;;;;5.57;5.07;;;28.30;76.90;;;29.92;38.24;97754.22;5227961;28;20223;-61
2022/07/28 08:23:01;;;;;;;6.82;5.35;;;28.20;76.60;;;29.64;38.59;97749.56;5227332;28;20248;-63
2022/07/28 08:25:36;;;;;;;5.72;5.22;;;28.10;77.90;;;29.43;38.57;97750.84;5222098;28;20219;-59
2022/07/28 08:28:09;;;;;;;5.88;5.38;;;28.20;76.80;;;29.64;39.15;97755.69;5224104;28;20249;-58
2022/07/28 08:30:43;;;;;;;6.10;5.53;;;28.40;77.40;;;29.66;39.08;97745.13;5222488;28;20759;-59
2022/07/28 08:33:20;;;;;;;5.35;4.95;;;28.30;77.80;;;29.84;38.33;97746.50;5225417;28;20299;-61
2022/07/28 08:35:54;;;;;;;5.35;4.95;;;28.50;75.60;;;29.53;39.94;97733.97;5227479;28;20292;-62
2022/07/28 08:38:27;;;;;;;6.22;5.53;;;28.40;77.60;;;29.73;38.36;97743.22;5233365;28;20227;-60
2022/07/28 08:41:04;;;;;;;8.15;5.40;;;28.90;75.20;;;29.75;38.99;97746.69;5225565;28;20295;-63
2022/07/28 08:43:39;;;;;;;6.05;5.45;;;28.80;75.70;;;29.80;39.22;97740.41;5229131;28;20219;-65
2022/07/28 08:46:13;;;;;;;6.35;5.75;;;29.00;75.40;;;29.87;39.09;97738.50;5213702;28;20296;-59
2022/07/28 08:48:49;;;;;;;6.15;5.50;;;29.20;75.80;;;29.80;38.03;97739.56;5212867;28;20231;-62
2022/07/28 08:51:26;;;;;;;5.63;5.13;;;29.20;73.80;;;29.76;38.78;97737.88;5212594;28;21053;-58
2022/07/28 08:54:01;;;;;;;6.47;5.88;;;29.00;74.60;;;29.79;38.50;97732.53;5210968;28;20291;-64
2022/07/28 08:56:40;;;;;;;6.20;5.47;;;29.00;74.70;;;29.72;38.50;97737.09;5209313;28;20646;-66
2022/07/28 08:59:20;;;;;;;6.20;5.75;;;28.90;74.60;;;29.54;38.96;97732.19;5213622;28;20313;-61
2022/07/28 09:01:54;;;;;;;6.20;5.68;;;28.80;75.00;;;29.19;39.22;97742.53;5212059;28;20303;-66
2022/07/28 09:04:35;;;;;;;6.43;5.82;;;28.60;75.20;;;29.26;39.16;97729.25;5211791;28;20205;-65
2022/07/28 09:07:10;;;;;;;6.22;5.63;;;28.30;76.10;;;29.33;40.15;97723.81;5212262;28;20224;-60
2022/07/28 09:09:45;;;;;;;6.35;5.85;;;28.60;76.00;;;29.25;39.84;97722.25;5210063;28;20259;-58
2022/07/28 09:12:18;;;;;;;7.38;5.53;;;28.60;76.20;;;29.27;39.95;97723.06;5214173;28;20664;-67
2022/07/28 09:15:01;;;;;;;6.22;5.63;;;28.60;75.60;;;29.27;39.08;97725.69;5210959;28;20209;-59
2022/07/28 09:17:35;;;;;;;6.15;5.63;;;28.60;75.20;;;29.37;40.13;97724.63;5210164;28;20299;-60
2022/07/28 09:20:11;;;;;;;6.30;5.80;;;28.80;75.60;;;29.30;40.44;97712.47;5209273;28;20324;-62
2022/07/28 09:22:57;;;;;;;5.85;5.45;;;28.80;75.90;;;29.53;39.49;97709.34;5211708;28;20719;-64
2022/07/28 09:25:31;;;;;;;6.20;5.70;;;28.90;74.80;;;29.29;41.31;97711.59;5208829;28;20208;-61
2022/07/28 09:28:10;;;;;;;6.28;5.55;;;29.00;76.60;;;29.44;41.19;97710.41;5210400;28;20338;-61
2022/07/28 09:30:45;;;;;;;6.10;5.60;;;29.10;76.00;;;29.66;39.56;97713.50;5206157;28;20652;-61
2022/07/28 09:33:28;;;;;;;6.90;6.13;;;29.10;74.80;;;29.56;38.61;97707.53;5210270;28;20740;-63
2022/07/28 09:36:17;;;;;;;6.20;5.60;;;28.90;74.60;;;29.24;39.95;97708.19;5217482;28;20192;-58
2022/07/28 09:38:50;;;;;;;6.57;5.50;;;28.50;75.50;;;29.21;40.08;97702.13;5218527;28;20242;-64
2022/07/28 09:41:25;;;;;;;8.38;5.80;;;28.40;76.10;;;29.43;39.59;97708.69;5210659;28;20226;-65
2022/07/28 09:43:58;;;;;;;6.55;5.95;;;28.70;75.40;;;29.49;38.83;97707.69;5219317;28;20224;-62
2022/07/28 09:46:31;;;;;;;6.28;5.72;;;28.80;74.50;;;29.57;39.85;97701.38;5221062;28;20200;-64
2022/07/28 09:49:05;;;;;;;6.75;6.15;;;28.80;76.10;;;29.35;40.06;97715.88;5216666;28;20268;-63
2022/07/28 09:51:40;;;;;;;6.72;5.90;;;28.60;75.30;;;29.04;40.14;97700.69;5214953;28;20577;-64
2022/07/28 09:54:14;;;;;;;6.38;5.75;;;28.20;76.10;;;28.72;40.59;97702.13;5216659;28;20583;-60
2022/07/28 09:56:48;;;;;;;6.10;5.60;;;28.00;76.30;;;28.94;40.60;97683.31;5213540;28;20193;-62
2022/07/28 09:59:21;;;;;;;5.70;5.28;;;28.20;76.10;;;29.22;40.01;97690.69;5208599;28;20196;-62
2022/07/28 10:01:57;;;;;;;6.22;5.63;;;28.50;76.00;;;28.94;40.33;97699.09;5219357;28;20212;-63
2022/07/28 10:04:34;;;;;;;6.13;5.57;;;28.40;75.90;;;28.91;41.03;97694.75;5218255;28;20198;-64
2022/07/28 10:07:12;;;;;;;6.20;5.57;;;28.30;76.70;;;29.51;39.58;97685.69;5221974;28;20227;-63
2022/07/28 10:09:57;;;;;;;5.90;5.28;;;28.90;75.10;;;29.61;39.35;97687.22;5213781;28;20292;-62
2022/07/28 10:12:33;;;;;;;6.10;5.22;;;29.10;74.10;;;29.83;38.69;97674.47;5219734;28;20728;-61
2022/07/28 10:18:04;;;;;;;5.93;5.43;;;29.40;73.20;;;30.00;38.58;97684.63;5220128;28;20204;-64
2022/07/28 10:20:38;;;;;;;5.95;5.45;;;29.40;73.60;;;30.19;36.69;97692.97;5220958;28;20292;-64
2022/07/28 10:23:14;;;;;;;5.50;5.00;;;29.50;71.00;;;29.74;37.89;97682.59;5220759;28;20244;-61
2022/07/28 10:25:48;;;;;;;5.57;5.13;;;29.10;72.90;;;29.80;38.52;97681.59;5220043;28;20803;-64
2022/07/28 10:28:22;;;;;;;6.05;5.55;;;29.00;73.40;;;29.85;38.27;97674.44;5221632;28;20224;-64
2022/07/28 10:31:00;;;;;;;6.13;5.57;;;29.10;72.90;;;29.88;37.94;97661.19;5217721;28;20239;-63
2022/07/28 10:33:39;;;;;;;5.60;5.20;;;29.00;73.40;;;29.75;38.09;97662.38;5214333;28;20236;-63
2022/07/28 10:36:13;;;;;;;6.15;5.47;;;28.90;73.20;;;29.47;37.98;97673.47;5213918;28;20671;-63
2022/07/28 10:38:47;;;;;;;5.90;5.50;;;28.80;72.20;;;29.32;37.76;97679.94;5219889;28;20232;-63
2022/07/28 10:41:24;;;;;;;6.28;5.78;;;28.60;72.70;;;29.27;38.72;97675.66;5217153;28;20228;-63
2022/07/28 10:44:03;;;;;;;6.15;5.65;;;28.50;74.60;;;29.27;38.61;97659.88;5223523;28;20292;-64
2022/07/28 10:46:37;;;;;;;6.10;5.53;;;28.50;73.10;;;29.21;39.02;97673.16;5224340;28;20208;-63
2022/07/28 10:49:13;;;;;;;5.90;5.40;;;28.50;74.00;;;29.03;38.06;97672.63;5216365;28;20196;-62
2022/07/28 10:51:49;;;;;;;5.95;5.47;;;28.40;72.30;;;29.14;37.93;97670.66;5218245;28;20671;-62
2022/07/28 10:54:52;;;;;;;6.00;5.50;;;28.40;72.90;;;29.07;37.88;97666.41;5221293;28;20283;-63
2022/07/28 10:57:26;;;;;;;5.53;5.13;;;28.30;72.10;;;28.89;38.47;97664.97;5228018;28;20266;-62
2022/07/28 11:00:12;;;;;;;5.65;5.18;;;28.20;72.10;;;29.33;37.54;97665.00;5222345;28;20225;-63
2022/07/28 11:02:57;;;;;;;5.20;4.80;;;28.50;72.20;;;29.34;37.89;97661.47;5218709;28;20221;-63
2022/07/28 11:05:37;;;;;;;6.97;5.38;;;28.60;72.00;;;29.02;37.67;97665.63;5220497;28;20243;-64
2022/07/28 11:08:28;;;;;;;5.22;4.63;;;28.60;70.70;;;29.00;37.00;97670.03;5225721;28;20270;-63